• Join FlightAware (Why Join?)
  • Login
  • US Flag 
06:25AM EDT


 

Airport Tracker/Info


-or-


 

Live Flight TrackerFlight Track Log ✈ UAL6002 ✈ 15-Apr-2013 ✈ KICT - KORD

Flight Track Log - Related Links

Times and Time Zones

All times are in EDT time to prevent confusion due to time zone crossing. See the UAL6002 flight status page for this flight to view local times or setup timezone preferences in your user account.

Time Position Orientation Groundspeed Altitude Reporting Facility
EDT Latitude Longitude Course Direction KTS MPH feet Rate Location/Type
07:32PM 37.7178 -97.4239 North 205 236 4,100  Level Kansas City Center
07:33PM 37.7558 -97.4186 North 219 252 5,100 2,100 Climbing Kansas City Center
07:34PM 37.8331 -97.4111 North 271 312 7,600 2,100 Climbing Kansas City Center
07:35PM 37.9125 -97.4025 North 287 330 9,500 1,380 Climbing Kansas City Center
07:36PM 38.0022 -97.3925 North 325 374 10,500 840 Climbing Kansas City Center
07:37PM 38.1081 -97.3803 North 381 438 11,300 1,260 Climbing Kansas City Center
07:38PM 38.2369 -97.3314 17° North 411 473 13,100 1,560 Climbing Kansas City Center
07:39PM 38.3447 -97.2756 22° Northeast 417 480 14,500 1,320 Climbing Kansas City Center
07:40PM 38.4442 -97.1997 31° Northeast 431 496 15,900 1,440 Climbing Kansas City Center
07:41PM 38.4992 -97.0642 63° Northeast 431 496 17,500 1,440 Climbing Kansas City Center
07:42PM 38.5478 -96.9242 66° East 432 497 18,900 1,440 Climbing Kansas City Center
07:43PM 38.5981 -96.7786 66° East 432 497 20,500 1,620 Climbing Kansas City Center
07:44PM 38.6547 -96.6200 65° Northeast 437 503 22,200 1,500 Climbing Kansas City Center
07:45PM 38.7011 -96.4831 67° East 439 505 23,700 1,500 Climbing Kansas City Center
07:46PM 38.7558 -96.3225 66° East 441 507 25,400 1,560 Climbing Kansas City Center
07:47PM 38.8022 -96.1856 66° East 439 505 26,900 1,380 Climbing Kansas City Center
07:48PM 38.8569 -96.0269 66° East 437 503 28,300 960 Climbing Kansas City Center
07:49PM 38.9036 -95.8869 67° East 446 513 29,000 540 Climbing Kansas City Center
07:50PM 38.9625 -95.7114 67° East 485 558 29,500 660 Climbing Kansas City Center
07:51PM 39.0139 -95.5606 66° East 483 556 30,400 1,020 Climbing Kansas City Center
07:52PM 39.0725 -95.3858 67° East 485 558 31,600 1,020 Climbing Kansas City Center
07:53PM 39.1261 -95.2239 67° East 492 566 32,600 660 Climbing Kansas City Center
07:54PM 39.1822 -95.0508 67° East 507 583 33,000 180 Climbing Kansas City Center
07:55PM 39.2358 -94.8881 67° East 518 596 33,000  Level Kansas City Center
07:56PM 39.3000 -94.6964 67° East 521 600 33,000  Level Kansas City Center
07:58PM 39.3669 -94.5381 61° Northeast 530 610 33,000  Level Kansas City Center
07:59PM 39.4408 -94.3564 62° Northeast 513 590 33,000  Level Kansas City Center
08:00PM 39.5044 -94.1992 62° Northeast 514 592 33,000  Level Kansas City Center
08:01PM 39.5783 -94.0153 62° Northeast 514 592 33,000  Level Kansas City Center
08:02PM 39.6417 -93.8569 63° Northeast 517 595 33,000  Level Kansas City Center
08:03PM 39.7067 -93.6917 63° Northeast 520 598 33,000  Level Kansas City Center
08:04PM 39.7700 -93.5239 64° Northeast 520 598 33,000  Level Kansas City Center
08:05PM 39.8381 -93.3656 61° Northeast 511 588 33,000  Level Kansas City Center
08:06PM 39.9147 -93.1658 63° Northeast 517 595 33,000  Level Kansas City Center
08:07PM 39.9786 -93.0008 63° Northeast 512 589 33,000  Level Kansas City Center
08:08PM 40.0417 -92.8353 64° Northeast 516 594 33,000 240 Level Kansas City Center
08:09PM 40.1058 -92.6633 64° Northeast 515 593 33,500 240 Climbing Kansas City Center
08:10PM 40.1781 -92.4764 63° Northeast 519 597 33,500 -300 Level Kansas City Center
08:11PM 40.2375 -92.3103 65° Northeast 517 595 33,000 -240 Descending Kansas City Center
08:12PM 40.2969 -92.1439 65° Northeast 515 593 33,000  Level Kansas City Center
08:13PM 40.3558 -91.9767 65° Northeast 513 590 33,000  Level Kansas City Center
08:14PM 40.4278 -91.7750 65° Northeast 512 589 33,000  Level Kansas City Center
08:15PM 40.4844 -91.6056 66° East 512 589 33,000  Level Kansas City Center
08:15PM 40.4964 -91.5722 65° Northeast 511 588 33,000  Level Chicago Center
08:16PM 40.5656 -91.3689 66° East 511 588 33,000  Level Chicago Center
08:17PM 40.6231 -91.2064 65° Northeast 512 589 33,000  Level Chicago Center
08:18PM 40.6806 -91.0350 66° East 512 589 33,000 -360 Level Chicago Center
08:19PM 40.7378 -90.8658 66° East 507 583 32,300 -1,080 Descending Chicago Center
08:21PM 40.7914 -90.7081 66° East 476 548 30,800 -1,440 Descending Chicago Center
08:22PM 40.8422 -90.5547 66° East 458 527 29,400 -1,560 Descending Chicago Center
08:23PM 40.9033 -90.3697 66° East 455 524 27,600 -1,560 Descending Chicago Center
08:24PM 40.9497 -90.2342 66° East 449 517 26,300 -1,320 Descending Chicago Center
08:25PM 40.9650 -90.0736 83° East 446 513 24,900 -1,140 Descending Chicago Center
08:26PM 40.9725 -89.8853 87° East 430 495 24,000 -480 Descending Chicago Center
08:27PM 40.9817 -89.7306 85° East 426 490 24,000  Level Chicago Center
08:28PM 41.0719 -89.6611 30° Northeast 402 463 24,000 -360 Level Chicago Center
08:29PM 41.1611 -89.5789 35° Northeast 411 473 23,300 -1,020 Descending Chicago Center
08:30PM 41.2178 -89.4456 61° Northeast 417 480 21,900 -1,440 Descending Chicago Center
08:31PM 41.2731 -89.3100 61° Northeast 417 480 20,400 -1,500 Descending Chicago Center
08:32PM 41.3361 -89.1506 62° Northeast 407 468 18,800 -1,860 Descending Chicago Center
08:33PM 41.3872 -89.0233 62° Northeast 396 456 16,700 -2,280 Descending Chicago Center
08:34PM 41.4378 -88.8936 62° Northeast 395 455 14,200 -2,400 Descending Chicago Center
08:35PM 41.4886 -88.7664 62° Northeast 392 451 11,800 -1,500 Descending Chicago Center
08:36PM 41.5325 -88.6567 62° Northeast 345 397 11,100 -420 Descending Chicago Center
08:37PM 41.5714 -88.5567 63° Northeast 310 357 11,000 -720 Descending Chicago Center
08:38PM 41.6236 -88.4394 59° Northeast 305 351 9,700 -1,200 Descending Chicago Center
08:39PM 41.6783 -88.3475 51° Northeast 313 360 8,600 -1,020 Descending Chicago Center
08:40PM 41.7306 -88.2589 52° Northeast 306 352 7,600 -840 Descending Chicago Center
08:41PM 41.7789 -88.1758 52° Northeast 291 335 7,000 -300 Descending Chicago Center
08:42PM 41.8231 -88.0983 53° Northeast 269 310 7,100  Climbing Chicago Center
08:43PM 41.8675 -88.0181 53° Northeast 267 307 7,000  Descending Chicago Center
08:44PM 41.8803 -87.9247 80° East 269 310 7,100  Climbing Chicago Center
08:45PM 41.8486 -87.8108 110° East 271 312 7,100 -60 Level Chicago Center
08:46PM 41.8567 -87.7053 84° East 296 341 7,000 -120 Descending Chicago Center
08:47PM 41.8703 -87.5989 80° East 293 337 6,900 -480 Descending Chicago Center
08:48PM 41.8814 -87.4958 82° East 283 326 6,100 -420 Descending Chicago Center
08:49PM 41.9000 -87.4000 75° East 242 278 6,100 -300 Level Chicago TRACON
08:50PM 41.9167 -87.3167 75° East 216 249 5,500 -540 Descending Chicago TRACON
08:51PM 41.9667 -87.3333 346° North 215 247 5,100 -240 Descending Chicago TRACON
08:52PM 41.9667 -87.4000 270° West 190 219 5,100  Level Chicago TRACON
08:53PM 41.9667 -87.4667 270° West 191 220 5,100  Level Chicago TRACON
08:54PM 41.9667 -87.5333 270° West 184 212 5,100 -180 Level Chicago TRACON
08:55PM 41.9667 -87.6167 270° West 192 221 4,800 -660 Descending Chicago TRACON
08:56PM 41.9667 -87.6833 270° West 178 205 3,800 -1,020 Descending Chicago TRACON
08:57PM 41.9667 -87.7333 270° West 174 200 2,800 -900 Descending Chicago TRACON
08:58PM 41.9667 -87.8000 270° West 130 150 2,000 -720 Descending Chicago TRACON
08:59PM 41.9667 -87.8333 270° West 121 139 1,400 -600 Descending Chicago TRACON